< < Back
Terminal Aerodrome Forecast


Current Version              Previous Versions:   1  2  3  4  5  6  7  8  9  

Terminal Aerodrome Forecast

912
FTUS44 KHUN 291124
TAFHSV
TAF
KHSV 291124Z 2912/3012 VRB04KT P6SM FEW200
     FM291400 03007KT P6SM FEW200
     FM291800 35012KT P6SM FEW035 FEW200
     FM300100 01005KT P6SM SKC=

Latest METAR

261
SAUS80 KWBC 291400 RRA
MTRHSV
METAR KHSV 291353Z 02006KT 10SM FEW250 27/18 A3004 RMK AO2 SLP163
T02720183


USA.gov is the U.S. government's official web portal to all federal, state and local government web resources and services.